NCAR-RAP Real-Time Weather Data

Output produced by METARs form (16 August 2018  19:23 UTC)
found at http://weather.rap.ucar.edu/surface/
 
Conditions at: KMCF observed 16 August 2018  18:56 UTC
Temperature: 33.1°C (92°F)
Dewpoint: 23.1°C (74°F) [RH = 56%]
Pressure (altimeter): 30.14 inches Hg (1020.7 mb)
[Sea-level pressure: 1020.9 mb]
Winds: from the SE (140 degrees) at 6 MPH (5 knots; 2.6 m/s)
Visibility: 10 or more miles (16+ km)
Ceiling: at least 12,000 feet AGL
Clouds: few clouds at 19000 feet AGL
scattered clouds at 21000 feet AGL
Present Weather:
SOME DATA ABOVE MAY BE INACCURATE!!!
"$" is an indication the sensor requires maintenance
KMCF 161856Z AUTO 14005KT 10SM FEW190 SCT210 33/23 A3014 RMK AO2 SLP209 T03310231 FZRANO $

Conditions at: KMCF observed 16 August 2018  17:56 UTC
Temperature: 32.3°C (90°F)
Dewpoint: 23.2°C (74°F) [RH = 59%]
Pressure (altimeter): 30.15 inches Hg (1021.1 mb)
[Sea-level pressure: 1021.3 mb]
Winds: from the S (170 degrees) at 8 MPH (7 knots; 3.6 m/s)
Visibility: 10 or more miles (16+ km)
Ceiling: at least 12,000 feet AGL
Clouds: few clouds at 12000 feet AGL
few clouds at 15000 feet AGL
scattered clouds at 20000 feet AGL
Present Weather:
SOME DATA ABOVE MAY BE INACCURATE!!!
"$" is an indication the sensor requires maintenance
KMCF 161756Z AUTO 17007KT 10SM FEW120 FEW150 SCT200 32/23 A3015 RMK AO2 SLP213 T03230232 10323 20255 58004 FZRANO $

Conditions at: KMCF observed 16 August 2018  16:56 UTC
Temperature: 31.9°C (89°F)
Dewpoint: 23.9°C (75°F) [RH = 63%]
Pressure (altimeter): 30.16 inches Hg (1021.4 mb)
[Sea-level pressure: 1021.6 mb]
Winds: from the SE (130 degrees) at 6 MPH (5 knots; 2.6 m/s)
Visibility: 10 or more miles (16+ km)
Ceiling: at least 12,000 feet AGL
Clouds: scattered clouds at 3800 feet AGL
scattered clouds at 17000 feet AGL
scattered clouds at 20000 feet AGL
Present Weather:
SOME DATA ABOVE MAY BE INACCURATE!!!
"$" is an indication the sensor requires maintenance
KMCF 161656Z AUTO 13005KT 10SM SCT038 SCT170 SCT200 32/24 A3016 RMK AO2 SLP216 T03190239 FZRANO $

Conditions at: KMCF observed 16 August 2018  15:56 UTC
Temperature: 31.3°C (88°F)
Dewpoint: 24.1°C (75°F) [RH = 66%]
Pressure (altimeter): 30.17 inches Hg (1021.8 mb)
[Sea-level pressure: 1021.9 mb]
Winds: from the ESE (120 degrees) at 8 MPH (7 knots; 3.6 m/s)
Visibility: 10 or more miles (16+ km)
Ceiling: at least 12,000 feet AGL
Clouds: few clouds at 2600 feet AGL
scattered clouds at 20000 feet AGL
Present Weather:
SOME DATA ABOVE MAY BE INACCURATE!!!
"$" is an indication the sensor requires maintenance
KMCF 161556Z AUTO 12007KT 10SM FEW026 SCT200 31/24 A3017 RMK AO2 SLP219 T03130241 FZRANO $

Conditions at: KMCF observed 16 August 2018  14:56 UTC
Temperature: 30.4°C (87°F)
Dewpoint: 25.0°C (77°F) [RH = 73%]
Pressure (altimeter): 30.17 inches Hg (1021.8 mb)
[Sea-level pressure: 1021.9 mb]
Winds: from the SE (140 degrees) at 10 MPH (9 knots; 4.7 m/s)
gusting to 21 MPH (18 knots; 9.4 m/s)
Visibility: 10 or more miles (16+ km)
Ceiling: at least 12,000 feet AGL
Clouds: few clouds at 2000 feet AGL
Present Weather:
SOME DATA ABOVE MAY BE INACCURATE!!!
"$" is an indication the sensor requires maintenance
KMCF 161456Z AUTO 14009G18KT 10SM FEW020 30/25 A3017 RMK AO2 SLP219 T03040250 52010 FZRANO $

Conditions at: KMCF observed 16 August 2018  13:56 UTC
Temperature: 29.4°C (85°F)
Dewpoint: 24.9°C (77°F) [RH = 77%]
Pressure (altimeter): 30.15 inches Hg (1021.1 mb)
[Sea-level pressure: 1021.3 mb]
Winds: from the E (100 degrees) at 9 MPH (8 knots; 4.2 m/s)
Visibility: 10 or more miles (16+ km)
Ceiling: at least 12,000 feet AGL
Clouds: sky clear below 12,000 feet AGL
Present Weather:
SOME DATA ABOVE MAY BE INACCURATE!!!
"$" is an indication the sensor requires maintenance
KMCF 161356Z AUTO 10008KT 10SM CLR 29/25 A3015 RMK AO2 SLP213 T02940249 FZRANO $

Conditions at: KMCF observed 16 August 2018  12:56 UTC
Temperature: 27.7°C (82°F)
Dewpoint: 24.1°C (75°F) [RH = 81%]
Pressure (altimeter): 30.14 inches Hg (1020.7 mb)
[Sea-level pressure: 1020.9 mb]
Winds: from the ESE (110 degrees) at 8 MPH (7 knots; 3.6 m/s)
Visibility: 10 or more miles (16+ km)
Ceiling: at least 12,000 feet AGL
Clouds: sky clear below 12,000 feet AGL
Present Weather:
SOME DATA ABOVE MAY BE INACCURATE!!!
"$" is an indication the sensor requires maintenance
KMCF 161256Z AUTO 11007KT 10SM CLR 28/24 A3014 RMK AO2 SLP209 T02770241 FZRANO $

Conditions at: KMCF observed 16 August 2018  11:56 UTC
Temperature: 25.4°C (78°F)
Dewpoint: 23.2°C (74°F) [RH = 88%]
Pressure (altimeter): 30.14 inches Hg (1020.7 mb)
[Sea-level pressure: 1020.9 mb]
Winds: from the E (100 degrees) at 5 MPH (4 knots; 2.1 m/s)
Visibility: 10 or more miles (16+ km)
Ceiling: at least 12,000 feet AGL
Clouds: sky clear below 12,000 feet AGL
Present Weather:
SOME DATA ABOVE MAY BE INACCURATE!!!
"$" is an indication the sensor requires maintenance
KMCF 161156Z AUTO 10004KT 10SM CLR 25/23 A3014 RMK AO2 SLP209 60000 T02540232 10255 20237 53015 FZRANO $

Conditions at: KMCF observed 16 August 2018  10:56 UTC
Temperature: 24.2°C (76°F)
Dewpoint: 22.2°C (72°F) [RH = 89%]
Pressure (altimeter): 30.11 inches Hg (1019.7 mb)
[Sea-level pressure: 1019.9 mb]
Winds: from the E (90 degrees) at 5 MPH (4 knots; 2.1 m/s)
Visibility: 10 or more miles (16+ km)
Ceiling: at least 12,000 feet AGL
Clouds: sky clear below 12,000 feet AGL
Present Weather:
SOME DATA ABOVE MAY BE INACCURATE!!!
"$" is an indication the sensor requires maintenance
KMCF 161056Z AUTO 09004KT 10SM CLR 24/22 A3011 RMK AO2 SLP199 T02420222 FZRANO $

Conditions at: KMCF observed 16 August 2018  09:56 UTC
Temperature: 24.3°C (76°F)
Dewpoint: 22.0°C (72°F) [RH = 87%]
Pressure (altimeter): 30.10 inches Hg (1019.4 mb)
[Sea-level pressure: 1019.6 mb]
Winds: from the ESE (110 degrees) at 5 MPH (4 knots; 2.1 m/s)
Visibility: 10 or more miles (16+ km)
Ceiling: at least 12,000 feet AGL
Clouds: sky clear below 12,000 feet AGL
Present Weather:
SOME DATA ABOVE MAY BE INACCURATE!!!
"$" is an indication the sensor requires maintenance
KMCF 160956Z AUTO 11004KT 10SM CLR 24/22 A3010 RMK AO2 SLP196 T02430220 FZRANO $

Conditions at: KMCF observed 16 August 2018  08:56 UTC
Temperature: 24.8°C (77°F)
Dewpoint: 22.5°C (72°F) [RH = 87%]
Pressure (altimeter): 30.09 inches Hg (1019.0 mb)
[Sea-level pressure: 1019.2 mb]
Winds: from the SE (130 degrees) at 5 MPH (4 knots; 2.1 m/s)
Visibility: 10 or more miles (16+ km)
Ceiling: 8000 feet AGL
Clouds: overcast cloud deck at 8000 feet AGL
Present Weather:
SOME DATA ABOVE MAY BE INACCURATE!!!
"$" is an indication the sensor requires maintenance
KMCF 160856Z AUTO 13004KT 10SM OVC080 25/23 A3009 RMK AO2 DZB17E27 SLP192 P0000 60000 T02480225 55012 FZRANO $

Conditions at: KMCF observed 16 August 2018  08:27 UTC
Temperature: 25.0°C (77°F)
Dewpoint: 22.0°C (72°F) [RH = 83%]
Pressure (altimeter): 30.08 inches Hg (1018.7 mb)
[Sea-level pressure: 1018.9 mb]
Winds: calm
Visibility: 10 or more miles (16+ km)
Ceiling: at least 12,000 feet AGL
Clouds: scattered clouds at 8000 feet AGL
Present Weather:
SOME DATA ABOVE MAY BE INACCURATE!!!
"$" is an indication the sensor requires maintenance
KMCF 160827Z AUTO 00000KT 10SM SCT080 25/22 A3008 RMK AO2 DZB17E27 SLP189 FZRANO $

Conditions at: KMCF observed 16 August 2018  08:21 UTC
Temperature: 25.0°C (77°F)
Dewpoint: 22.0°C (72°F) [RH = 83%]
Pressure (altimeter): 30.09 inches Hg (1019.0 mb)
[Sea-level pressure: 1019.2 mb]
Winds: calm
Visibility: 10 or more miles (16+ km)
Ceiling: at least 12,000 feet AGL
Clouds: few clouds at 8500 feet AGL
Present Weather: -DZ  (light drizzle)
SOME DATA ABOVE MAY BE INACCURATE!!!
"$" is an indication the sensor requires maintenance
KMCF 160821Z AUTO 00000KT 10SM -DZ FEW085 25/22 A3009 RMK AO2 DZB17 SLP192 FZRANO $

Conditions at: KMCF observed 16 August 2018  07:56 UTC
Temperature: 24.8°C (77°F)
Dewpoint: 22.3°C (72°F) [RH = 86%]
Pressure (altimeter): 30.09 inches Hg (1019.0 mb)
[Sea-level pressure: 1019.2 mb]
Winds: from the E (90 degrees) at 6 MPH (5 knots; 2.6 m/s)
Visibility: 10 or more miles (16+ km)
Ceiling: at least 12,000 feet AGL
Clouds: sky clear below 12,000 feet AGL
Present Weather:
SOME DATA ABOVE MAY BE INACCURATE!!!
"$" is an indication the sensor requires maintenance
KMCF 160756Z AUTO 09005KT 10SM CLR 25/22 A3009 RMK AO2 SLP192 T02480223 FZRANO $

Conditions at: KMCF observed 16 August 2018  06:56 UTC
Temperature: 24.9°C (77°F)
Dewpoint: 22.7°C (73°F) [RH = 88%]
Pressure (altimeter): 30.08 inches Hg (1018.7 mb)
[Sea-level pressure: 1018.9 mb]
Winds: from the E (80 degrees) at 6 MPH (5 knots; 2.6 m/s)
Visibility: 10 or more miles (16+ km)
Ceiling: at least 12,000 feet AGL
Clouds: few clouds at 16000 feet AGL
Present Weather:
SOME DATA ABOVE MAY BE INACCURATE!!!
"$" is an indication the sensor requires maintenance
KMCF 160656Z AUTO 08005KT 10SM FEW160 25/23 A3008 RMK AO2 PRESFR SLP189 T02490227 FZRANO $

Conditions at: KMCF observed 16 August 2018  06:21 UTC
Temperature: 25.0°C (77°F)
Dewpoint: 23.0°C (73°F) [RH = 89%]
Pressure (altimeter): 30.12 inches Hg (1020.1 mb)
[Sea-level pressure: 1020.3 mb]
Winds: from the E (80 degrees) at 12 MPH (10 knots; 5.2 m/s)
Visibility: 10 or more miles (16+ km)
Ceiling: at least 12,000 feet AGL
Clouds: few clouds at 1000 feet AGL
scattered clouds at 8000 feet AGL
Present Weather:
SOME DATA ABOVE MAY BE INACCURATE!!!
"$" is an indication the sensor requires maintenance
KMCF 160621Z AUTO 08010KT 10SM FEW010 SCT080 25/23 A3012 RMK AO2 SLP203 FZRANO $

Conditions at: KMCF observed 16 August 2018  04:56 UTC
Temperature: 25.4°C (78°F)
Dewpoint: 22.7°C (73°F) [RH = 85%]
Pressure (altimeter): 30.13 inches Hg (1020.4 mb)
Winds: from the ENE (60 degrees) at 8 MPH (7 knots; 3.6 m/s)
Visibility: 10 or more miles (16+ km)
Ceiling: at least 12,000 feet AGL
Clouds: few clouds at 9000 feet AGL
Present Weather:
SOME DATA ABOVE MAY BE INACCURATE!!!
"$" is an indication the sensor requires maintenance
KMCF 160456Z AUTO 06007KT 10SM FEW090 25/23 A3013 RMK AO2 LTG DSNT NE-E RAB0356E01DZB01E02 SLPNO P0000 T02540227 403330233 FZRANO $

Conditions at: KMCF observed 16 August 2018  03:56 UTC
Temperature: 25.4°C (78°F)
Dewpoint: 22.9°C (73°F) [RH = 86%]
Pressure (altimeter): 30.13 inches Hg (1020.4 mb)
Winds: from the E (90 degrees) at 5 MPH (4 knots; 2.1 m/s)
Visibility: 10 or more miles (16+ km)
Ceiling: at least 12,000 feet AGL
Clouds: sky clear below 12,000 feet AGL
Present Weather:
SOME DATA ABOVE MAY BE INACCURATE!!!
"$" is an indication the sensor requires maintenance
KMCF 160356Z AUTO 09004KT 10SM CLR 25/23 A3013 RMK AO2 LTG DSNT SE DZB44E51RAB51 SLPNO P0000 T02540229 FZRANO $

Conditions at: KMCF observed 16 August 2018  02:56 UTC
Temperature: 25.8°C (78°F)
Dewpoint: 22.5°C (72°F) [RH = 82%]
Pressure (altimeter): 30.12 inches Hg (1020.1 mb)
Winds: from the E (80 degrees) at 3 MPH (3 knots; 1.6 m/s)
Visibility: 10 or more miles (16+ km)
Ceiling: at least 12,000 feet AGL
Clouds: scattered clouds at 6500 feet AGL
Present Weather:
SOME DATA ABOVE MAY BE INACCURATE!!!
"$" is an indication the sensor requires maintenance
KMCF 160256Z AUTO 08003KT 10SM SCT065 26/23 A3012 RMK AO2 LTG DSNT SE DZB29E47 SLPNO P0000 60000 T02580225 52014 FZRANO $

Conditions at: KMCF observed 16 August 2018  02:47 UTC
Temperature: 26.0°C (79°F)
Dewpoint: 22.0°C (72°F) [RH = 79%]
Pressure (altimeter): 30.12 inches Hg (1020.1 mb)
Winds: from the NE (50 degrees) at 3 MPH (3 knots; 1.6 m/s)
Visibility: 10 or more miles (16+ km)
Ceiling: 6500 feet AGL
Clouds: broken clouds at 6500 feet AGL
Present Weather:
SOME DATA ABOVE MAY BE INACCURATE!!!
"$" is an indication the sensor requires maintenance
KMCF 160247Z AUTO 05003KT 10SM BKN065 26/22 A3012 RMK AO2 DZB29E47 SLPNO FZRANO $

Conditions at: KMCF observed 16 August 2018  02:29 UTC
Temperature: 26.0°C (79°F)
Dewpoint: 22.0°C (72°F) [RH = 79%]
Pressure (altimeter): 30.11 inches Hg (1019.7 mb)
Winds: from the ENE (70 degrees) at 3 MPH (3 knots; 1.6 m/s)
Visibility: 10 or more miles (16+ km)
Ceiling: at least 12,000 feet AGL
Clouds: scattered clouds at 6500 feet AGL
Present Weather: -DZ  (light drizzle)
SOME DATA ABOVE MAY BE INACCURATE!!!
"$" is an indication the sensor requires maintenance
KMCF 160229Z AUTO 07003KT 10SM -DZ SCT065 26/22 A3011 RMK AO2 DZB29 SLPNO FZRANO $

Conditions at: KMCF observed 16 August 2018  01:56 UTC
Temperature: 25.2°C (77°F)
Dewpoint: 21.9°C (71°F) [RH = 82%]
Pressure (altimeter): 30.10 inches Hg (1019.4 mb)
Winds: from the NE (40 degrees) at 6 MPH (5 knots; 2.6 m/s)
Visibility: 10 or more miles (16+ km)
Ceiling: at least 12,000 feet AGL
Clouds: sky clear below 12,000 feet AGL
Present Weather:
SOME DATA ABOVE MAY BE INACCURATE!!!
"$" is an indication the sensor requires maintenance
KMCF 160156Z AUTO 04005KT 10SM CLR 25/22 A3010 RMK AO2 DZB12E32 SLPNO P0000 T02520219 FZRANO $

Conditions at: KMCF observed 16 August 2018  01:32 UTC
Temperature: 26.0°C (79°F)
Dewpoint: 22.0°C (72°F) [RH = 79%]
Pressure (altimeter): 30.09 inches Hg (1019.0 mb)
Winds: from the NE (40 degrees) at 6 MPH (5 knots; 2.6 m/s)
Visibility: 10 or more miles (16+ km)
Ceiling: 20000 feet AGL
Clouds: broken clouds at 20000 feet AGL
Present Weather:
SOME DATA ABOVE MAY BE INACCURATE!!!
"$" is an indication the sensor requires maintenance
KMCF 160132Z AUTO 04005KT 10SM BKN200 26/22 A3009 RMK AO2 DZB12E32 SLPNO FZRANO $

Conditions at: KMCF observed 16 August 2018  01:12 UTC
Temperature: 26.0°C (79°F)
Dewpoint: 22.0°C (72°F) [RH = 79%]
Pressure (altimeter): 30.08 inches Hg (1018.7 mb)
Winds: from the NNE (20 degrees) at 5 MPH (4 knots; 2.1 m/s)
Visibility: 10 or more miles (16+ km)
Ceiling: 20000 feet AGL
Clouds: broken clouds at 20000 feet AGL
Present Weather: -DZ  (light drizzle)
SOME DATA ABOVE MAY BE INACCURATE!!!
"$" is an indication the sensor requires maintenance
KMCF 160112Z AUTO 02004KT 10SM -DZ BKN200 26/22 A3008 RMK AO2 DZB12 SLPNO FZRANO $

Conditions at: KMCF observed 16 August 2018  00:56 UTC
Temperature: 26.2°C (79°F)
Dewpoint: 22.2°C (72°F) [RH = 79%]
Pressure (altimeter): 30.09 inches Hg (1019.0 mb)
[Sea-level pressure: 1019.2 mb]
Winds: from the NNE (30 degrees) at 5 MPH (4 knots; 2.1 m/s)
Visibility: 10 or more miles (16+ km)
Ceiling: at least 12,000 feet AGL
Clouds: scattered clouds at 20000 feet AGL
Present Weather:
SOME DATA ABOVE MAY BE INACCURATE!!!
"$" is an indication the sensor requires maintenance
KMCF 160056Z AUTO 03004KT 10SM SCT200 26/22 A3009 RMK AO2 SLP192 T02620222 FZRANO $

Conditions at: KMCF observed 15 August 2018  23:56 UTC
Temperature: 26.7°C (80°F)
Dewpoint: 22.3°C (72°F) [RH = 77%]
Pressure (altimeter): 30.08 inches Hg (1018.7 mb)
[Sea-level pressure: 1018.9 mb]
Winds: calm
Visibility: 10 or more miles (16+ km)
Ceiling: at least 12,000 feet AGL
Clouds: sky clear below 12,000 feet AGL
Present Weather:
SOME DATA ABOVE MAY BE INACCURATE!!!
"$" is an indication the sensor requires maintenance
KMCF 152356Z AUTO 00000KT 10SM CLR 27/22 A3008 RMK AO2 SLP189 60000 T02670223 10333 20266 53008 FZRANO $

Conditions at: KMCF observed 15 August 2018  22:56 UTC
Temperature: 27.5°C (82°F)
Dewpoint: 22.0°C (72°F) [RH = 72%]
Pressure (altimeter): 30.07 inches Hg (1018.4 mb)
[Sea-level pressure: 1018.6 mb]
Winds: from the S (190 degrees) at 5 MPH (4 knots; 2.1 m/s)
Visibility: 10 or more miles (16+ km)
Ceiling: 20000 feet AGL
Clouds: scattered clouds at 18000 feet AGL
broken clouds at 20000 feet AGL
Present Weather:
SOME DATA ABOVE MAY BE INACCURATE!!!
"$" is an indication the sensor requires maintenance
KMCF 152256Z AUTO 19004KT 10SM SCT180 BKN200 28/22 A3007 RMK AO2 SLP186 T02750220 FZRANO $

Conditions at: KMCF observed 15 August 2018  21:56 UTC
Temperature: 27.7°C (82°F)
Dewpoint: 21.0°C (70°F) [RH = 67%]
Pressure (altimeter): 30.06 inches Hg (1018.0 mb)
[Sea-level pressure: 1018.2 mb]
Winds: calm
Visibility: 10 or more miles (16+ km)
Ceiling: 18000 feet AGL
Clouds: few clouds at 3400 feet AGL
few clouds at 9000 feet AGL
overcast cloud deck at 18000 feet AGL
Present Weather: VCTS  (thunderstorm in vicinity)
SOME DATA ABOVE MAY BE INACCURATE!!!
"$" is an indication the sensor requires maintenance
KMCF 152156Z AUTO 00000KT 10SM VCTS FEW034 FEW090 OVC180 28/21 A3006 RMK AO2 DZE2057 TSB02E19 SLP182 P0000 T02770210 FZRANO $

Conditions at: KMCF observed 15 August 2018  21:19 UTC
Temperature: 28.0°C (82°F)
Dewpoint: 23.0°C (73°F) [RH = 74%]
Pressure (altimeter): 30.06 inches Hg (1018.0 mb)
[Sea-level pressure: 1018.2 mb]
Winds: from the SSE (160 degrees) at 14 MPH (12 knots; 6.2 m/s)
gusting to 21 MPH (18 knots; 9.4 m/s)
Visibility: 10 or more miles (16+ km)
Ceiling: 18000 feet AGL
Clouds: scattered clouds at 6000 feet AGL
broken clouds at 18000 feet AGL
Present Weather: VCTS  (thunderstorm in vicinity)
SOME DATA ABOVE MAY BE INACCURATE!!!
"$" is an indication the sensor requires maintenance
KMCF 152119Z AUTO 16012G18KT 10SM VCTS SCT060 BKN180 28/23 A3006 RMK AO2 DZE2057 TSB02E19 SLP182 FZRANO $

Conditions at: KMCF observed 15 August 2018  21:02 UTC
Temperature: 30.0°C (86°F)
Dewpoint: 23.0°C (73°F) [RH = 66%]
Pressure (altimeter): 30.06 inches Hg (1018.0 mb)
[Sea-level pressure: 1018.2 mb]
Winds: from the S (170 degrees) at 6 MPH (5 knots; 2.6 m/s)
Visibility: 10 or more miles (16+ km)
Ceiling: at least 12,000 feet AGL
Clouds: few clouds at 8000 feet AGL
scattered clouds at 18000 feet AGL
Present Weather: TS  (thunderstorm)
SOME DATA ABOVE MAY BE INACCURATE!!!
"$" is an indication the sensor requires maintenance
KMCF 152102Z AUTO 17005KT 10SM TS FEW080 SCT180 30/23 A3006 RMK AO2 DZE2057 TSB02 SLP182 FZRANO $

Conditions at: KMCF observed 15 August 2018  20:57 UTC
Temperature: 31.0°C (88°F)
Dewpoint: 22.0°C (72°F) [RH = 59%]
Pressure (altimeter): 30.06 inches Hg (1018.0 mb)
[Sea-level pressure: 1018.2 mb]
Winds: from the S (170 degrees) at 6 MPH (5 knots; 2.6 m/s)
Visibility: 10 or more miles (16+ km)
Ceiling: at least 12,000 feet AGL
Clouds: few clouds at 6500 feet AGL
scattered clouds at 8000 feet AGL
scattered clouds at 18000 feet AGL
Present Weather: VCTS  (thunderstorm in vicinity)
SOME DATA ABOVE MAY BE INACCURATE!!!
"$" is an indication the sensor requires maintenance
KMCF 152057Z AUTO 17005KT 10SM VCTS FEW065 SCT080 SCT180 31/22 A3006 RMK AO2 DZE57 SLP182 FZRANO $

Conditions at: KMCF observed 15 August 2018  20:56 UTC
Temperature: 30.9°C (88°F)
Dewpoint: 21.6°C (71°F) [RH = 58%]
Pressure (altimeter): 30.06 inches Hg (1018.0 mb)
[Sea-level pressure: 1018.2 mb]
Winds: from the S (170 degrees) at 7 MPH (6 knots; 3.1 m/s)
Visibility: 10 or more miles (16+ km)
Ceiling: at least 12,000 feet AGL
Clouds: few clouds at 7000 feet AGL
scattered clouds at 8000 feet AGL
scattered clouds at 18000 feet AGL
Present Weather: VCTS -DZ  (thunderstorm in vicinity, light drizzle)
SOME DATA ABOVE MAY BE INACCURATE!!!
"$" is an indication the sensor requires maintenance
KMCF 152056Z AUTO 17006KT 10SM -DZ VCTS FEW070 SCT080 SCT180 31/22 A3006 RMK AO2 RAB17E40DZB40 SLP182 P0000 60000 T03090216 57015 FZRANO $

Conditions at: KMCF observed 15 August 2018  20:17 UTC
Temperature: 30.0°C (86°F)
Dewpoint: 23.0°C (73°F) [RH = 66%]
Pressure (altimeter): 30.06 inches Hg (1018.0 mb)
[Sea-level pressure: 1018.2 mb]
Winds: from the S (190 degrees) at 12 MPH (10 knots; 5.2 m/s)
Visibility: 10 or more miles (16+ km)
Ceiling: 19000 feet AGL
Clouds: scattered clouds at 4500 feet AGL
broken clouds at 19000 feet AGL
Present Weather: -RA  (light rain)
SOME DATA ABOVE MAY BE INACCURATE!!!
"$" is an indication the sensor requires maintenance
KMCF 152017Z AUTO 19010KT 10SM -RA SCT045 BKN190 30/23 A3006 RMK AO2 LTG DSNT NE RAB17 SLP182 FZRANO $

Conditions at: KMCF observed 15 August 2018  19:56 UTC
Temperature: 33.1°C (92°F)
Dewpoint: 22.2°C (72°F) [RH = 53%]
Pressure (altimeter): 30.06 inches Hg (1018.0 mb)
[Sea-level pressure: 1018.2 mb]
Winds: from the SE (130 degrees) at 10 MPH (9 knots; 4.7 m/s)
Visibility: 10 or more miles (16+ km)
Ceiling: 4700 feet AGL
Clouds: broken clouds at 4700 feet AGL
Present Weather:
SOME DATA ABOVE MAY BE INACCURATE!!!
"$" is an indication the sensor requires maintenance
KMCF 151956Z AUTO 13009KT 10SM BKN047 33/22 A3006 RMK AO2 SLP182 T03310222 FZRANO $